createdAt,value
2019-01-31T16:16:22.156Z,58.55
2019-01-31T16:20:23.515Z,58.75
2019-01-31T16:24:24.925Z,59.76
2019-01-31T16:28:26.162Z,60.58
2019-01-31T16:32:27.590Z,61.08
2019-01-31T16:36:29.056Z,61.14
2019-01-31T16:40:30.414Z,61.15
2019-01-31T16:44:32.021Z,61.02
2019-01-31T16:48:35.997Z,61.03
2019-01-31T16:52:37.321Z,61.70
2019-01-31T16:56:38.822Z,61.06
2019-01-31T17:00:40.120Z,61.44
2019-01-31T17:04:41.431Z,61.76
2019-01-31T17:08:42.902Z,62.29
2019-01-31T17:12:44.409Z,61.96
2019-01-31T17:16:45.771Z,62.05
2019-01-31T17:20:47.244Z,62.80
2019-01-31T17:24:48.675Z,63.98
2019-01-31T17:28:50.286Z,64.74
2019-01-31T17:32:52.280Z,65.46
2019-01-31T17:36:53.704Z,65.50
2019-01-31T17:40:55.254Z,66.97
2019-01-31T17:44:56.801Z,67.16
2019-01-31T17:48:58.270Z,67.38
2019-01-31T17:52:59.711Z,67.76
2019-01-31T17:57:01.067Z,67.99
2019-01-31T18:01:02.795Z,68.07
2019-01-31T18:05:07.952Z,69.20
2019-01-31T18:09:09.501Z,68.77
2019-01-31T18:13:10.925Z,69.66
2019-01-31T18:17:12.934Z,70.62
2019-01-31T18:21:14.681Z,70.20
2019-01-31T18:25:16.119Z,69.97
2019-01-31T18:29:18.534Z,69.08
2019-01-31T18:33:19.989Z,69.13
2019-01-31T18:37:21.269Z,68.80
2019-01-31T18:41:22.796Z,68.35
2019-01-31T18:45:30.315Z,67.69
2019-01-31T18:49:31.877Z,68.09
2019-01-31T18:53:33.097Z,68.18
2019-01-31T18:57:34.618Z,66.82
2019-01-31T19:01:36.239Z,65.75
2019-01-31T19:05:37.736Z,63.77
2019-01-31T19:09:39.151Z,63.81
2019-01-31T19:13:40.604Z,64.83
2019-01-31T19:17:42.031Z,65.08
2019-01-31T19:21:43.676Z,65.45
2019-01-31T19:25:47.242Z,66.29
2019-01-31T19:29:48.684Z,66.16
2019-01-31T19:33:51.794Z,65.51
2019-01-31T19:38:01.458Z,64.85
2019-01-31T19:41:57.501Z,64.51
2019-01-31T19:45:58.982Z,64.67
2019-01-31T19:50:00.551Z,64.25
2019-01-31T19:54:02.000Z,64.45
2019-01-31T19:58:03.831Z,65.13
2019-01-31T20:02:05.383Z,64.81
2019-01-31T20:06:06.989Z,64.44
2019-01-31T20:10:15.353Z,64.57
2019-01-31T20:14:16.734Z,64.21
2019-01-31T20:18:18.095Z,63.81
2019-01-31T20:22:19.700Z,63.75
2019-01-31T20:26:21.315Z,63.42
2019-01-31T20:30:24.873Z,63.64
2019-01-31T20:34:26.310Z,63.72
2019-01-31T20:38:27.958Z,63.56
2019-01-31T20:42:29.415Z,63.44
2019-01-31T20:46:39.680Z,63.41
2019-01-31T20:50:36.276Z,63.51
2019-01-31T20:54:37.703Z,63.88
2019-01-31T20:58:39.017Z,63.82
2019-01-31T21:02:40.491Z,63.67
2019-01-31T21:06:42.057Z,63.96
2019-01-31T21:10:43.476Z,64.19
2019-01-31T21:14:44.910Z,63.79
2019-01-31T21:18:46.762Z,64.33
2019-01-31T21:22:48.575Z,64.41
2019-01-31T21:26:50.106Z,64.67
2019-01-31T21:30:51.380Z,64.20
2019-01-31T21:34:52.714Z,63.69
2019-01-31T21:38:54.051Z,64.01
2019-01-31T21:42:55.325Z,63.30
2019-01-31T21:47:03.153Z,62.43
2019-01-31T21:51:00.074Z,62.79
2019-01-31T21:55:01.470Z,63.56
2019-01-31T21:59:03.125Z,62.84
2019-01-31T22:03:05.479Z,62.44
2019-01-31T22:07:06.860Z,62.32
2019-01-31T22:11:07.997Z,62.03
2019-01-31T22:15:13.244Z,62.04
2019-01-31T22:19:14.667Z,61.74
2019-01-31T22:23:16.226Z,61.76
2019-01-31T22:27:17.498Z,59.98
2019-01-31T22:31:18.888Z,59.20
2019-01-31T22:35:20.329Z,58.63
2019-01-31T22:39:21.687Z,58.21
2019-01-31T22:43:23.091Z,57.79
2019-01-31T22:47:26.259Z,58.21
2019-01-31T22:51:27.747Z,57.42
2019-01-31T22:55:29.012Z,57.49
2019-01-31T22:59:30.549Z,57.19
2019-01-31T23:03:31.996Z,56.91
2019-01-31T23:07:33.404Z,56.37
2019-01-31T23:11:34.859Z,55.69
2019-01-31T23:15:36.209Z,55.49
2019-01-31T23:19:37.682Z,54.87
2019-01-31T23:23:38.939Z,53.95
2019-01-31T23:27:40.209Z,54.94
2019-01-31T23:31:41.873Z,54.93
2019-01-31T23:35:43.149Z,54.53
2019-01-31T23:39:44.457Z,54.53
2019-01-31T23:43:45.831Z,54.10
2019-01-31T23:47:48.860Z,55.82
2019-01-31T23:51:50.306Z,54.98
2019-01-31T23:55:51.559Z,54.78
2019-01-31T23:59:53.002Z,54.52
